Time;durP1;ratioP1;P1;durP2;ratioP2;P2;SDS_P1;SDS_P2;PMS_P1;PMS_P2;Temp;Humidity;BMP_temperature;BMP_pressure;BME280_temperature;BME280_humidity;BME280_pressure;Samples;Min_cycle;Max_cycle;Signal;HPM_P1;HPM_P2
2022/08/08 00:01:55;;;;;;;2.50;2.30;;;13.60;1.40;;;14.93;100.00;95800.79;647349;216;42849;-70
2022/08/08 00:04:52;;;;;;;1.60;1.30;;;13.50;1.40;;;14.93;100.00;95796.77;647217;216;31557;-69
2022/08/08 00:07:52;;;;;;;1.77;1.33;;;13.40;1.40;;;14.89;100.00;95793.66;649694;212;31787;-70
2022/08/08 00:10:50;;;;;;;2.17;1.40;;;13.40;1.40;;;14.90;100.00;95792.16;646028;216;31534;-70
2022/08/08 00:13:32;;;;;;;1.95;1.50;;;13.40;1.40;;;14.86;100.00;95791.52;645921;216;32088;-70
2022/08/08 00:16:23;;;;;;;2.65;1.80;;;13.30;1.40;;;14.80;100.00;95792.02;649309;216;31559;-69
2022/08/08 00:19:19;;;;;;;2.00;1.23;;;13.30;1.40;;;14.72;100.00;95790.86;646743;216;31854;-70
2022/08/08 00:22:03;;;;;;;1.80;1.50;;;13.20;1.40;;;14.51;100.00;95792.34;645763;216;31515;-71
2022/08/08 00:24:48;;;;;;;1.62;1.25;;;13.10;1.40;;;14.24;100.00;95793.04;647198;216;31940;-70
2022/08/08 00:27:30;;;;;;;1.33;1.23;;;12.90;1.40;;;14.22;100.00;95793.44;648059;216;31811;-70
2022/08/08 00:30:12;;;;;;;1.50;1.40;;;13.00;1.40;;;14.29;100.00;95795.40;650313;216;31511;-71
2022/08/08 00:32:55;;;;;;;1.42;1.10;;;13.00;1.40;;;14.24;100.00;95788.50;646175;216;32158;-71
2022/08/08 00:35:57;;;;;;;1.80;1.70;;;13.00;1.40;;;14.30;100.00;95782.75;650152;216;31562;-70
2022/08/08 00:38:45;;;;;;;2.08;1.80;;;13.00;1.40;;;14.38;100.00;95787.28;646702;212;31688;-70
2022/08/08 00:41:47;;;;;;;2.40;1.48;;;13.00;1.40;;;14.36;100.00;95782.50;645025;216;32032;-71
2022/08/08 00:45:03;;;;;;;2.30;1.70;;;12.90;1.40;;;14.30;100.00;95785.98;647610;212;32003;-70
2022/08/08 00:48:28;;;;;;;3.72;1.55;;;12.90;1.40;;;14.38;100.00;95786.84;647276;216;31994;-71
2022/08/08 00:53:53;;;;;;;2.00;1.80;;;12.90;1.40;;;14.18;100.00;95788.03;621601;226;32151;-71
2022/08/08 00:57:32;;;;;;;1.37;1.27;;;12.80;1.40;;;14.13;100.00;95784.53;648545;216;31512;-72
2022/08/08 01:00:21;;;;;;;1.40;1.17;;;12.80;1.40;;;14.12;100.00;95786.72;650208;216;31574;-72
2022/08/08 01:03:08;;;;;;;1.50;1.40;;;12.80;1.40;;;14.11;100.00;95782.61;647251;212;31572;-71
2022/08/08 01:05:55;;;;;;;1.85;1.30;;;12.70;1.40;;;14.14;100.00;95785.86;621521;226;31911;-72
2022/08/08 01:09:03;;;;;;;2.10;1.90;;;12.80;1.40;;;14.14;100.00;95787.03;648388;212;31515;-71
2022/08/08 01:11:52;;;;;;;2.70;2.00;;;12.80;1.40;;;14.05;100.00;95779.63;646044;212;31488;-72
2022/08/08 01:15:02;;;;;;;2.37;1.55;;;12.80;1.40;;;14.10;100.00;95782.09;648641;216;31490;-70
2022/08/08 01:18:06;;;;;;;2.78;1.62;;;12.90;1.40;;;14.16;100.00;95780.05;645048;212;31502;-70
2022/08/08 01:21:07;;;;;;;1.98;1.60;;;12.90;1.40;;;14.21;100.00;95780.95;649507;216;31531;-70
2022/08/08 01:26:29;;;;;;;2.30;1.33;;;12.90;1.40;;;14.21;100.00;95787.03;649541;216;31543;-70
2022/08/08 01:29:29;;;;;;;2.60;1.60;;;12.80;1.40;;;14.09;100.00;95788.33;651730;216;32104;-70
2022/08/08 01:32:42;;;;;;;1.98;1.55;;;12.60;1.40;;;14.01;100.00;95786.58;648892;216;31623;-70
2022/08/08 01:41:49;;;;;;;1.70;1.40;;;12.40;1.40;;;13.93;100.00;95785.51;649647;216;31568;-70
2022/08/08 01:45:01;;;;;;;1.45;1.12;;;12.40;1.40;;;13.88;100.00;95785.95;648362;216;31601;-71
2022/08/08 01:48:08;;;;;;;1.33;1.20;;;12.40;1.40;;;13.76;100.00;95787.46;648148;216;34435;-71
2022/08/08 01:51:03;;;;;;;1.40;1.30;;;12.30;1.40;;;13.63;100.00;95788.25;648259;216;31787;-70
2022/08/08 01:53:52;;;;;;;1.20;1.07;;;12.30;1.40;;;13.71;100.00;95784.05;650190;216;31654;-70
2022/08/08 01:59:38;;;;;;;2.35;1.50;;;12.30;1.40;;;13.49;100.00;95784.48;648550;212;32148;-70
2022/08/08 02:02:36;;;;;;;1.40;1.30;;;12.20;1.40;;;13.48;100.00;95786.41;649304;216;31466;-70
2022/08/08 02:05:22;;;;;;;1.40;1.30;;;12.10;1.40;;;13.52;100.00;95786.84;648880;212;42287;-70
2022/08/08 02:11:27;;;;;;;1.23;1.00;;;12.10;1.40;;;13.53;100.00;95786.45;647880;216;32141;-70
2022/08/08 02:14:33;;;;;;;1.10;0.90;;;12.10;1.40;;;13.51;100.00;95790.53;649960;216;31646;-70
2022/08/08 02:17:16;;;;;;;1.60;1.10;;;12.10;1.40;;;13.56;100.00;95791.97;620191;222;32512;-70
2022/08/08 02:25:24;;;;;;;5.90;1.50;;;12.00;1.40;;;13.53;100.00;95787.22;644936;216;42142;-70
2022/08/08 02:28:24;;;;;;;1.37;1.27;;;12.00;1.40;;;13.50;100.00;95786.20;645667;216;42461;-70
2022/08/08 02:31:25;;;;;;;1.40;1.10;;;12.00;1.40;;;13.52;100.00;95786.68;648814;216;42495;-70
2022/08/08 02:36:03;;;;;;;1.60;1.37;;;12.20;1.40;;;13.52;100.00;95793.89;644962;216;31639;-70
2022/08/08 02:38:54;;;;;;;3.80;1.45;;;12.10;1.40;;;13.41;100.00;95800.94;645156;216;37731;-71
2022/08/08 02:44:24;;;;;;;1.20;1.10;;;11.90;1.40;;;13.19;100.00;95802.94;647629;216;42138;-70
2022/08/08 02:47:25;;;;;;;1.15;1.05;;;11.80;1.40;;;13.14;100.00;95800.11;646707;216;31557;-71
2022/08/08 02:50:31;;;;;;;1.67;1.37;;;11.80;1.40;;;13.18;100.00;95804.71;645287;216;42145;-70
2022/08/08 02:53:22;;;;;;;1.40;1.30;;;11.80;1.40;;;13.21;100.00;95803.30;649555;212;38758;-70
2022/08/08 02:56:37;;;;;;;1.30;1.10;;;11.90;1.40;;;13.37;100.00;95802.22;651023;216;32223;-70
2022/08/08 02:59:31;;;;;;;2.10;1.33;;;11.90;1.40;;;13.21;100.00;95802.86;648396;212;34801;-70
2022/08/08 03:02:26;;;;;;;1.50;1.40;;;11.90;1.40;;;13.29;100.00;95802.01;647108;212;31653;-70
2022/08/08 03:05:32;;;;;;;2.37;1.17;;;12.00;1.40;;;13.24;100.00;95801.75;648294;212;32075;-70
2022/08/08 03:08:40;;;;;;;0.95;0.88;;;11.90;1.40;;;13.25;100.00;95799.66;645283;216;31530;-70
2022/08/08 03:11:46;;;;;;;1.20;1.10;;;11.90;1.40;;;13.22;100.00;95799.25;648641;216;42379;-70
2022/08/08 03:14:44;;;;;;;1.27;1.17;;;11.80;1.40;;;13.24;100.00;95796.41;649312;212;33742;-69
2022/08/08 03:17:36;;;;;;;1.40;1.02;;;11.80;1.40;;;13.36;100.00;95801.31;633046;222;31740;-70
2022/08/08 03:20:16;;;;;;;1.33;1.23;;;11.90;1.40;;;13.38;100.00;95794.62;648544;216;35800;-71
2022/08/08 03:22:57;;;;;;;0.75;0.75;;;11.90;1.40;;;13.34;100.00;95794.77;644703;212;31580;-70
2022/08/08 03:25:38;;;;;;;1.30;1.17;;;11.80;1.40;;;13.29;100.00;95797.73;645333;216;42214;-70
2022/08/08 03:28:21;;;;;;;1.70;1.60;;;11.80;1.40;;;13.24;100.00;95793.14;649057;212;42802;-71
2022/08/08 03:33:16;;;;;;;1.42;1.33;;;11.70;1.40;;;13.16;100.00;95791.93;617883;226;38245;-71
2022/08/08 03:35:51;;;;;;;1.60;1.12;;;11.70;1.40;;;13.06;100.00;95793.89;647742;212;32098;-71
2022/08/08 03:38:32;;;;;;;1.10;1.00;;;11.70;1.40;;;13.06;100.00;95794.78;649039;216;31941;-71
2022/08/08 03:41:14;;;;;;;1.20;1.05;;;11.60;1.40;;;13.02;100.00;95799.01;646607;212;42193;-70
2022/08/08 03:43:56;;;;;;;1.60;1.50;;;11.60;1.40;;;12.93;100.00;95800.50;646674;212;42203;-71
2022/08/08 03:46:46;;;;;;;1.23;1.12;;;11.60;1.40;;;12.87;100.00;95806.86;644077;212;31658;-71
2022/08/08 03:49:28;;;;;;;4.68;1.55;;;11.50;1.40;;;12.73;100.00;95801.90;647461;212;37076;-70
2022/08/08 03:52:10;;;;;;;1.10;1.00;;;11.40;1.40;;;12.78;100.00;95803.67;620413;225;32011;-70
2022/08/08 03:54:51;;;;;;;4.18;1.58;;;11.50;1.40;;;12.77;100.00;95805.46;647139;216;42144;-71
2022/08/08 03:57:36;;;;;;;2.90;1.30;;;11.40;1.40;;;12.79;100.00;95804.27;646083;216;42233;-71
2022/08/08 04:00:18;;;;;;;1.20;1.10;;;11.30;1.40;;;12.83;100.00;95805.06;645262;212;41264;-70
2022/08/08 04:03:03;;;;;;;2.00;1.80;;;11.40;1.40;;;12.86;100.00;95805.75;646738;216;42805;-70
2022/08/08 04:05:44;;;;;;;1.48;1.37;;;11.40;1.40;;;12.85;100.00;95804.91;620039;222;42542;-73
2022/08/08 04:08:26;;;;;;;1.77;1.67;;;11.40;1.40;;;12.91;100.00;95807.64;620503;226;32133;-71
2022/08/08 04:11:08;;;;;;;1.48;1.08;;;11.50;1.40;;;12.84;100.00;95806.77;648031;216;41424;-70
2022/08/08 04:13:49;;;;;;;1.50;1.40;;;11.40;1.40;;;13.00;100.00;95812.97;644638;212;31532;-71
2022/08/08 04:16:31;;;;;;;1.50;1.40;;;11.50;1.40;;;12.86;100.00;95810.47;611253;226;33074;-70
2022/08/08 04:19:13;;;;;;;1.10;1.10;;;11.50;1.40;;;12.81;100.00;95814.21;648817;216;31558;-70
2022/08/08 04:21:55;;;;;;;1.23;1.10;;;11.40;1.40;;;12.80;100.00;95818.54;646516;216;35461;-70
2022/08/08 04:24:36;;;;;;;1.20;1.10;;;11.40;1.40;;;12.78;100.00;95818.37;648051;216;31749;-71
2022/08/08 04:27:49;;;;;;;2.60;1.02;;;11.30;1.40;;;12.81;100.00;95827.34;651359;216;31527;-71
2022/08/08 04:30:30;;;;;;;1.50;1.40;;;11.30;1.40;;;12.72;100.00;95829.98;646759;216;39065;-71
2022/08/08 04:35:51;;;;;;;2.10;1.90;;;11.20;1.40;;;12.78;100.00;95841.62;647336;216;31605;-72
2022/08/08 04:38:32;;;;;;;1.70;1.50;;;11.30;1.40;;;12.79;100.00;95837.98;646152;216;41940;-70
2022/08/08 04:41:14;;;;;;;2.10;1.90;;;11.30;1.40;;;12.82;100.00;95840.15;650865;216;31917;-70
2022/08/08 04:43:58;;;;;;;1.98;1.77;;;11.30;1.40;;;12.85;100.00;95844.80;646467;216;35091;-71
2022/08/08 04:49:14;;;;;;;2.17;1.35;;;11.40;1.40;;;12.95;100.00;95852.55;646909;216;34813;-71
2022/08/08 04:51:59;;;;;;;1.98;1.00;;;11.40;1.40;;;12.89;100.00;95858.58;645909;212;31612;-71
2022/08/08 04:54:40;;;;;;;1.20;1.10;;;11.40;1.40;;;12.97;100.00;95858.38;648039;216;33555;-71
2022/08/08 04:57:22;;;;;;;1.20;1.10;;;11.50;1.40;;;12.97;100.00;95860.23;646934;212;31774;-72
2022/08/08 05:00:09;;;;;;;2.17;1.33;;;11.50;1.40;;;12.93;100.00;95858.75;646823;216;32144;-71
2022/08/08 05:02:51;;;;;;;1.80;1.30;;;11.60;1.40;;;12.99;100.00;95856.80;644922;216;42168;-73
2022/08/08 05:05:32;;;;;;;1.83;1.10;;;11.60;1.40;;;13.07;100.00;95859.53;645110;212;42682;-70
2022/08/08 05:08:14;;;;;;;3.42;1.65;;;11.70;1.40;;;13.15;100.00;95859.16;647758;216;31554;-71
2022/08/08 05:10:59;;;;;;;1.33;1.23;;;11.80;1.40;;;13.21;100.00;95862.61;619611;226;42509;-71
2022/08/08 05:13:40;;;;;;;1.30;1.20;;;11.80;1.40;;;13.37;100.00;95864.44;646328;216;42122;-70
2022/08/08 05:16:22;;;;;;;1.55;1.33;;;11.90;1.40;;;13.53;100.00;95865.56;641025;212;31708;-70
2022/08/08 05:19:04;;;;;;;2.10;1.60;;;12.10;1.40;;;13.68;100.00;95871.67;651945;216;31898;-71
2022/08/08 05:21:45;;;;;;;1.90;1.40;;;12.20;1.40;;;13.82;100.00;95870.81;644766;212;42172;-71
2022/08/08 05:24:27;;;;;;;1.62;1.52;;;12.30;1.40;;;14.01;100.00;95871.14;651388;212;42734;-71
2022/08/08 05:27:12;;;;;;;2.10;1.90;;;12.50;1.40;;;14.08;100.00;95867.44;647978;212;31592;-72
2022/08/08 05:29:54;;;;;;;1.50;1.40;;;12.60;1.40;;;14.23;100.00;95868.98;645708;212;43553;-71
2022/08/08 05:32:35;;;;;;;4.20;2.60;;;12.80;1.40;;;14.38;100.00;95872.02;621178;222;31830;-71
2022/08/08 05:38:26;;;;;;;3.40;2.20;;;13.10;1.40;;;14.66;100.00;95872.98;646126;216;31580;-70
2022/08/08 05:41:08;;;;;;;2.08;1.55;;;13.20;1.40;;;14.87;100.00;95872.78;646946;216;31505;-71
2022/08/08 05:43:49;;;;;;;3.37;2.08;;;13.50;1.40;;;14.94;100.00;95869.20;646214;216;31524;-70
2022/08/08 05:46:36;;;;;;;2.72;2.10;;;13.60;1.40;;;15.10;100.00;95871.45;646885;216;31586;-70
2022/08/08 05:49:18;;;;;;;2.90;2.55;;;13.70;1.40;;;15.30;100.00;95879.31;645597;216;31588;-70
2022/08/08 05:52:00;;;;;;;3.22;2.85;;;13.80;1.40;;;15.47;100.00;95880.25;645662;216;31507;-71
2022/08/08 05:54:41;;;;;;;3.50;2.30;;;14.10;1.40;;;15.64;100.00;95882.69;648465;214;31617;-71
2022/08/08 05:57:23;;;;;;;2.80;2.00;;;14.30;1.40;;;15.77;100.00;95888.06;648574;212;31576;-70
2022/08/08 06:00:08;;;;;;;2.95;2.40;;;14.50;1.40;;;15.96;100.00;95885.31;647189;216;31536;-72
2022/08/08 06:05:33;;;;;;;3.90;2.80;;;14.90;1.40;;;16.28;100.00;95886.98;648798;216;31580;-70
2022/08/08 06:08:15;;;;;;;2.10;1.90;;;15.10;1.40;;;16.41;100.00;95893.36;647277;212;31546;-70
2022/08/08 06:10:56;;;;;;;3.33;1.87;;;15.20;1.40;;;16.51;100.00;95890.73;645299;216;31519;-70
2022/08/08 06:13:38;;;;;;;1.87;1.48;;;15.40;1.40;;;16.69;100.00;95895.05;649849;212;31666;-70
2022/08/08 06:16:20;;;;;;;2.97;2.10;;;15.50;1.40;;;16.86;100.00;95898.57;637424;212;31677;-69
2022/08/08 06:19:02;;;;;;;2.33;2.05;;;15.60;1.40;;;16.96;100.00;95903.89;620014;226;31930;-70
2022/08/08 06:21:48;;;;;;;2.10;1.90;;;15.70;1.40;;;16.86;100.00;95906.55;647807;216;31547;-70
2022/08/08 06:24:30;;;;;;;2.33;2.12;;;15.80;1.40;;;17.09;100.00;95906.12;647048;212;31503;-69
2022/08/08 06:27:15;;;;;;;2.53;2.15;;;15.90;1.40;;;17.05;100.00;95907.00;648525;212;31507;-69
2022/08/08 06:29:59;;;;;;;2.00;1.80;;;15.30;1.40;;;16.67;100.00;95914.66;649045;212;31568;-69
2022/08/08 06:32:51;;;;;;;2.10;1.90;;;14.50;1.40;;;16.57;100.00;95912.66;645437;212;32629;-70
2022/08/08 06:35:51;;;;;;;3.30;1.90;;;14.30;1.40;;;16.49;100.00;95906.87;645816;216;31660;-71
2022/08/08 06:38:33;;;;;;;2.75;1.60;;;14.30;1.40;;;16.48;100.00;95905.58;647831;212;31621;-72
2022/08/08 06:41:14;;;;;;;2.17;1.83;;;14.40;1.40;;;16.55;100.00;95908.80;646846;216;31551;-71
2022/08/08 06:43:56;;;;;;;1.70;1.60;;;14.40;1.40;;;16.85;100.00;95919.26;646020;216;31519;-70
2022/08/08 06:46:37;;;;;;;1.20;1.10;;;14.50;1.40;;;16.79;100.00;95908.91;645304;216;32142;-69
2022/08/08 06:49:22;;;;;;;2.97;2.05;;;14.40;1.40;;;16.93;100.00;95915.30;645272;216;31539;-69
2022/08/08 06:52:04;;;;;;;5.22;2.17;;;14.50;1.40;;;16.88;100.00;95914.88;646104;212;31566;-69
2022/08/08 06:54:46;;;;;;;2.00;1.75;;;14.60;1.40;;;16.97;100.00;95916.23;645933;212;42137;-70
2022/08/08 06:57:28;;;;;;;2.97;1.90;;;14.70;1.40;;;17.37;100.00;95922.70;645858;216;31553;-71
2022/08/08 07:00:10;;;;;;;2.45;2.17;;;14.80;1.40;;;17.24;100.00;95925.80;622764;222;32062;-70
2022/08/08 07:02:55;;;;;;;2.20;1.90;;;14.90;1.40;;;17.67;100.00;95930.87;648955;212;31481;-69
2022/08/08 07:05:36;;;;;;;;;;;15.20;1.40;;;17.38;100.00;95932.18;653510;216;24866;-70
2022/08/08 07:08:20;;;;;;;;;;;15.10;1.40;;;17.73;100.00;95931.55;655726;212;24786;-69
2022/08/08 07:11:06;;;;;;;;;;;15.40;1.40;;;17.61;100.00;95933.94;657045;216;24817;-70
2022/08/08 07:13:46;;;;;;;;;;;15.30;1.40;;;17.51;100.00;95933.37;651392;216;24754;-70
2022/08/08 07:16:31;;;;;;;;;;;15.30;1.40;;;17.57;100.00;95934.17;640996;216;24835;-70
2022/08/08 07:19:30;;;;;;;;;;;15.50;1.40;;;17.97;100.00;95935.97;652083;216;24799;-70
2022/08/08 07:22:11;;;;;;;;;;;15.90;1.40;;;18.72;100.00;95937.48;656053;216;25421;-69
2022/08/08 07:24:58;;;;;;;;;;;16.20;1.40;;;18.57;100.00;95940.01;653933;216;24820;-70
2022/08/08 07:27:40;;;;;;;;;;;16.20;1.40;;;18.60;100.00;95936.69;653256;216;25657;-69
2022/08/08 07:30:21;;;;;;;;;;;16.40;1.40;;;19.00;100.00;95943.55;653492;216;24798;-69
2022/08/08 07:33:02;;;;;;;;;;;16.60;1.40;;;19.35;100.00;95946.39;657579;212;24796;-71
2022/08/08 07:35:51;;;;;;;;;;;16.90;1.40;;;19.65;100.00;95948.70;653134;216;24807;-70
2022/08/08 07:38:32;;;;;;;;;;;18.00;1.40;;;19.89;100.00;95954.23;657621;212;24833;-70
2022/08/08 07:41:13;;;;;;;;;;;18.90;1.40;;;20.06;100.00;95955.48;654500;216;24808;-70
2022/08/08 07:43:56;;;;;;;;;;;19.40;1.40;;;20.30;100.00;95953.49;649108;219;24745;-69
2022/08/08 07:46:39;;;;;;;;;;;19.70;1.40;;;20.45;100.00;95952.55;653100;216;24798;-70
2022/08/08 07:49:20;;;;;;;;;;;19.80;1.40;;;20.56;100.00;95955.58;650066;216;24720;-70
2022/08/08 07:52:02;;;;;;;;;;;19.90;1.40;;;20.44;100.00;95955.53;652151;216;24776;-70
2022/08/08 07:55:01;;;;;;;;;;;19.60;1.40;;;20.51;100.00;95958.79;657087;212;24167;-69
2022/08/08 07:57:47;;;;;;;;;;;19.70;1.40;;;20.69;100.00;95956.69;654513;212;24719;-70
2022/08/08 08:00:29;;;;;;;;;;;20.00;1.40;;;20.81;100.00;95960.16;654205;216;24830;-70
2022/08/08 08:03:10;;;;;;;;;;;19.90;1.40;;;20.90;100.00;95953.37;654681;216;24817;-69
2022/08/08 08:05:52;;;;;;;;;;;20.00;1.40;;;20.85;100.00;95962.63;652647;216;24854;-69
2022/08/08 08:08:53;;;;;;;;;;;20.00;1.40;;;21.00;100.00;95969.37;653504;216;24815;-69
2022/08/08 08:11:34;;;;;;;;;;;20.10;1.40;;;21.08;100.00;95961.63;650518;216;24787;-69
2022/08/08 08:14:17;;;;;;;;;;;20.30;1.40;;;21.06;100.00;95966.09;649642;217;24819;-72
2022/08/08 08:16:58;;;;;;;;;;;20.30;1.40;;;21.35;100.00;95959.95;623179;227;24870;-69
2022/08/08 08:19:40;;;;;;;;;;;20.60;1.40;;;21.59;100.00;95958.08;653810;212;25279;-69
2022/08/08 08:22:22;;;;;;;;;;;20.70;1.40;;;21.78;100.00;95954.31;652141;212;24802;-69
2022/08/08 08:25:04;;;;;;;;;;;20.80;1.40;;;22.26;100.00;95957.29;654569;216;24804;-69
2022/08/08 08:27:46;;;;;;;;;;;21.40;1.40;;;22.53;100.00;95958.84;652520;216;24730;-69
2022/08/08 08:30:30;;;;;;;;;;;21.70;1.40;;;22.10;100.00;95958.83;655991;216;24796;-69
2022/08/08 08:35:55;;;;;;;1.77;1.67;;;21.50;1.40;;;22.85;100.00;95958.50;622838;222;32220;-71
2022/08/08 08:38:37;;;;;;;2.30;2.10;;;21.80;1.40;;;23.18;100.00;95959.93;646029;212;31582;-71
2022/08/08 08:41:22;;;;;;;1.92;1.83;;;22.10;1.40;;;23.02;100.00;95958.42;646891;212;31544;-71
2022/08/08 08:44:03;;;;;;;2.97;1.70;;;22.20;1.40;;;23.54;95.83;95960.58;647218;212;31551;-72
2022/08/08 08:46:48;;;;;;;1.90;1.70;;;22.70;1.40;;;23.79;94.93;95961.16;622373;222;31837;-71
2022/08/08 08:51:15;;;;;;;1.80;1.70;;;22.90;1.40;;;24.25;92.42;95963.70;651823;212;31717;-70
2022/08/08 08:53:56;;;;;;;2.03;1.65;;;22.90;1.40;;;24.69;91.47;95963.81;643388;212;32136;-70
2022/08/08 08:56:38;;;;;;;2.30;1.55;;;23.20;1.40;;;24.93;91.02;95964.84;650547;216;31561;-70
2022/08/08 08:59:20;;;;;;;1.60;1.50;;;23.70;1.40;;;24.86;88.74;95967.42;649807;216;42252;-70
2022/08/08 09:02:01;;;;;;;2.12;1.60;;;23.20;1.40;;;24.90;88.39;95959.08;648527;212;31530;-70
2022/08/08 09:04:43;;;;;;;1.83;1.50;;;23.20;1.40;;;24.59;84.53;95962.90;648500;212;31775;-70
2022/08/08 09:07:25;;;;;;;1.60;1.50;;;23.30;1.40;;;24.97;86.66;95963.28;650983;212;31544;-70
2022/08/08 09:10:09;;;;;;;1.90;1.80;;;23.90;1.40;;;24.94;81.47;95967.45;649360;216;31540;-70
2022/08/08 09:12:51;;;;;;;2.00;1.55;;;23.50;1.40;;;24.69;84.21;95973.94;649762;212;31547;-70
2022/08/08 09:18:07;;;;;;;2.20;1.90;;;22.70;1.40;;;25.76;79.06;95964.54;646127;216;31550;-70
2022/08/08 09:20:49;;;;;;;1.40;1.30;;;25.70;1.40;;;25.49;73.20;95970.41;648802;216;31586;-70
2022/08/08 09:23:30;;;;;;;1.52;1.42;;;26.70;1.40;;;25.87;71.81;95969.69;647620;212;31520;-71
2022/08/08 09:26:21;;;;;;;1.35;1.27;;;27.00;1.40;;;27.67;72.68;95965.98;648350;212;32404;-72
2022/08/08 09:29:02;;;;;;;2.28;1.52;;;29.20;1.40;;;29.53;67.38;95960.63;647400;216;31579;-70
2022/08/08 09:32:04;;;;;;;2.72;1.75;;;30.10;1.40;;;28.10;61.90;95960.53;620674;226;31993;-70
2022/08/08 09:35:51;;;;;;;2.03;1.65;;;25.30;1.40;;;28.99;66.24;95959.03;648186;216;31654;-71
2022/08/08 09:38:37;;;;;;;1.48;1.37;;;26.90;1.40;;;24.97;68.89;95971.36;620139;222;31927;-70
2022/08/08 09:41:18;;;;;;;2.00;1.27;;;24.30;1.40;;;26.56;68.26;95970.06;646242;216;31881;-71
2022/08/08 09:44:00;;;;;;;1.40;1.30;;;26.80;1.40;;;28.95;65.09;95959.73;647318;216;31562;-71
2022/08/08 09:46:42;;;;;;;1.60;1.50;;;26.90;1.40;;;30.26;63.86;95960.01;644479;212;32091;-70
2022/08/08 09:49:23;;;;;;;1.62;1.52;;;27.80;1.40;;;31.37;60.37;95949.86;651283;216;31567;-70
2022/08/08 09:52:05;;;;;;;2.83;1.50;;;29.00;1.40;;;29.59;64.56;95966.11;649287;216;31576;-73
2022/08/08 09:54:47;;;;;;;2.22;1.60;;;28.60;1.40;;;29.98;60.54;95959.55;617844;226;31924;-70
2022/08/08 09:57:33;;;;;;;1.60;1.20;;;29.70;1.40;;;34.19;56.10;95951.79;646510;212;31658;-71
2022/08/08 10:00:19;;;;;;;2.20;1.70;;;33.20;1.40;;;32.82;49.03;95945.84;645723;216;42296;-71
2022/08/08 10:03:01;;;;;;;1.60;1.50;;;31.10;1.40;;;32.27;51.32;95949.69;647948;212;31582;-71
2022/08/08 10:05:45;;;;;;;1.20;1.10;;;31.50;1.40;;;33.71;46.07;95944.17;644518;216;31525;-71
2022/08/08 10:08:27;;;;;;;1.45;1.35;;;32.50;1.40;;;31.59;49.18;95946.48;625421;226;31859;-70
2022/08/08 10:11:09;;;;;;;1.70;1.60;;;30.60;1.40;;;35.24;48.93;95931.13;647173;216;42803;-71
2022/08/08 10:13:57;;;;;;;2.60;1.50;;;33.50;1.40;;;34.66;45.06;95936.44;649853;216;31517;-71
2022/08/08 10:16:38;;;;;;;1.40;1.30;;;33.10;1.40;;;32.66;44.96;95944.56;636054;216;31674;-71
2022/08/08 10:19:22;;;;;;;1.40;1.20;;;28.40;1.40;;;31.74;50.00;95937.27;650269;216;31518;-72
2022/08/08 10:22:04;;;;;;;1.50;1.40;;;28.30;1.40;;;32.45;48.58;95935.83;645611;212;31535;-71
2022/08/08 10:24:49;;;;;;;2.42;1.52;;;27.50;1.40;;;30.70;50.28;95938.65;647605;216;31933;-70
2022/08/08 10:27:30;;;;;;;3.80;1.70;;;25.90;1.40;;;30.53;52.35;95939.47;643814;212;31628;-71
2022/08/08 10:30:12;;;;;;;1.15;1.10;;;29.00;1.40;;;32.75;45.43;95937.61;646215;216;31505;-70
2022/08/08 10:32:54;;;;;;;1.40;1.30;;;32.00;1.40;;;35.70;43.80;95927.73;644704;212;31629;-71
2022/08/08 10:35:51;;;;;;;1.45;1.35;;;32.50;1.40;;;33.56;43.35;95933.85;645372;216;31539;-70
2022/08/08 10:38:34;;;;;;;1.40;1.30;;;31.80;1.40;;;34.28;42.31;95932.31;651675;216;31663;-71
2022/08/08 10:41:15;;;;;;;1.58;1.48;;;32.30;1.40;;;36.25;41.83;95925.63;647011;216;31854;-73
2022/08/08 10:46:31;;;;;;;1.60;1.50;;;33.70;1.40;;;39.53;38.29;95924.67;648682;216;31496;-71
2022/08/08 10:49:13;;;;;;;1.50;1.30;;;34.70;1.40;;;34.30;44.35;95933.95;649414;216;31556;-70
2022/08/08 10:51:54;;;;;;;1.33;1.23;;;31.90;1.40;;;36.68;41.73;95926.78;636222;217;31682;-70
2022/08/08 10:54:38;;;;;;;1.27;1.17;;;32.90;1.40;;;36.48;38.12;95930.23;645622;216;32181;-71
2022/08/08 10:57:21;;;;;;;2.28;1.30;;;33.00;1.40;;;31.64;41.80;95936.53;646566;216;32253;-71
2022/08/08 11:00:03;;;;;;;1.67;1.58;;;29.60;1.40;;;33.65;43.28;95935.20;650093;216;31583;-71
2022/08/08 11:02:49;;;;;;;2.10;1.60;;;30.00;1.40;;;34.89;41.02;95927.25;646601;216;33404;-71
2022/08/08 11:05:30;;;;;;;1.60;1.30;;;31.90;1.40;;;37.13;40.49;95921.21;617847;225;32307;-71
2022/08/08 11:08:11;;;;;;;1.90;1.50;;;33.60;1.40;;;35.31;40.67;95925.21;646125;212;32099;-71
2022/08/08 11:11:01;;;;;;;1.57;1.47;;;32.00;1.40;;;36.33;42.81;95920.16;647963;216;42061;-70
2022/08/08 11:13:46;;;;;;;1.60;1.50;;;32.90;1.40;;;32.78;40.46;95929.85;651577;212;42290;-71
2022/08/08 11:16:28;;;;;;;1.62;1.52;;;30.60;1.40;;;33.54;41.46;95934.12;648903;212;42708;-71
2022/08/08 11:19:10;;;;;;;1.20;1.10;;;30.90;1.40;;;32.61;43.50;95941.47;647283;212;42174;-71
2022/08/08 11:21:51;;;;;;;1.33;1.23;;;30.40;1.40;;;32.95;41.12;95934.77;650920;216;42310;-72
2022/08/08 11:24:36;;;;;;;1.50;1.40;;;29.50;1.40;;;35.35;39.98;95925.28;650676;212;31921;-71
2022/08/08 11:27:18;;;;;;;2.20;1.50;;;29.00;1.40;;;30.66;43.84;95935.45;645671;216;31585;-70
2022/08/08 11:29:59;;;;;;;1.45;1.35;;;27.60;1.40;;;32.75;44.42;95928.48;650814;216;31565;-71
2022/08/08 11:32:41;;;;;;;1.60;1.50;;;30.40;1.40;;;36.64;40.26;95918.20;644507;212;31599;-71
2022/08/08 11:35:51;;;;;;;1.58;1.48;;;33.10;1.40;;;38.33;37.76;95911.56;648160;212;35689;-71
2022/08/08 11:38:33;;;;;;;1.80;1.70;;;33.10;1.40;;;35.77;39.35;95919.06;619595;222;31856;-71
2022/08/08 11:41:15;;;;;;;1.63;1.53;;;32.40;1.40;;;38.25;36.70;95913.16;652444;216;31549;-69
2022/08/08 11:43:56;;;;;;;1.40;1.40;;;30.10;1.40;;;35.39;37.78;95913.08;646140;216;31893;-71
2022/08/08 11:46:41;;;;;;;1.50;1.40;;;30.50;1.40;;;37.44;38.84;95911.66;644809;216;31854;-72
2022/08/08 11:49:23;;;;;;;1.90;1.80;;;32.90;1.40;;;36.40;38.16;95910.72;650028;216;31509;-69
2022/08/08 11:52:08;;;;;;;1.60;1.50;;;31.70;1.40;;;37.33;36.99;95909.67;650811;212;32107;-70
2022/08/08 11:54:50;;;;;;;2.05;1.87;;;29.20;1.40;;;34.33;40.74;95915.73;647220;216;32105;-69
2022/08/08 11:57:38;;;;;;;1.70;1.60;;;29.60;1.40;;;37.38;37.92;95902.56;644759;216;31593;-69
2022/08/08 12:02:06;;;;;;;1.80;1.70;;;29.40;1.40;;;37.01;38.90;95900.13;651984;212;42270;-71
2022/08/08 12:04:50;;;;;;;2.40;1.80;;;32.30;1.40;;;35.38;38.08;95903.33;646319;212;31663;-71
2022/08/08 12:07:29;;;;;;;1.50;1.40;;;31.40;1.40;;;35.36;41.22;95901.16;648034;216;31960;-72
2022/08/08 12:10:12;;;;;;;1.33;1.23;;;31.40;1.40;;;39.42;37.19;95892.55;647780;216;31611;-71
2022/08/08 12:13:02;;;;;;;1.67;1.57;;;33.80;1.40;;;39.70;34.65;95893.73;646477;216;31571;-71
2022/08/08 12:15:47;;;;;;;1.50;1.40;;;33.90;1.40;;;38.50;39.00;95897.32;637302;216;31818;-72
2022/08/08 12:18:25;;;;;;;1.80;1.70;;;33.20;1.40;;;39.43;34.78;95893.48;650321;216;31566;-69
2022/08/08 12:21:06;;;;;;;1.70;1.60;;;32.60;1.40;;;37.24;34.57;95892.00;651048;216;31508;-69
2022/08/08 12:23:48;;;;;;;1.60;1.50;;;30.00;1.40;;;37.58;35.94;95892.69;645720;212;33294;-69
2022/08/08 12:26:37;;;;;;;1.50;1.40;;;32.10;1.40;;;39.77;33.15;95884.31;646904;216;31514;-69
2022/08/08 12:29:27;;;;;;;1.57;1.47;;;33.30;1.40;;;40.60;33.63;95883.67;649874;216;31712;-71
2022/08/08 12:35:51;;;;;;;2.60;1.70;;;31.80;1.40;;;38.78;35.35;95891.70;649566;216;43513;-69
2022/08/08 12:38:33;;;;;;;1.30;1.30;;;32.10;1.40;;;34.38;37.02;95902.55;645624;212;31569;-72
2022/08/08 12:41:14;;;;;;;1.80;1.70;;;29.90;1.40;;;39.23;35.08;95892.09;647330;216;31500;-70
2022/08/08 12:43:56;;;;;;;1.90;1.60;;;32.60;1.40;;;40.86;31.75;95885.75;646175;216;31536;-71
2022/08/08 12:46:38;;;;;;;1.70;1.60;;;33.10;1.40;;;40.68;31.82;95878.89;645419;216;31931;-71